createdAt,value
2023-05-08T00:01:06.475Z,11.38
2023-05-08T00:03:33.884Z,12.10
2023-05-08T00:06:04.696Z,12.07
2023-05-08T00:08:31.860Z,12.13
2023-05-08T00:10:58.902Z,11.38
2023-05-08T00:13:26.189Z,11.75
2023-05-08T00:15:53.353Z,10.73
2023-05-08T00:18:20.351Z,8.95
2023-05-08T00:20:47.369Z,8.80
2023-05-08T00:23:14.434Z,8.88
2023-05-08T00:25:41.485Z,7.90
2023-05-08T00:28:08.538Z,8.18
2023-05-08T00:30:35.605Z,8.25
2023-05-08T00:33:02.791Z,8.20
2023-05-08T00:35:29.903Z,8.20
2023-05-08T00:37:56.974Z,8.45
2023-05-08T00:40:24.253Z,8.48
2023-05-08T00:42:51.357Z,9.05
2023-05-08T00:45:18.455Z,9.15
2023-05-08T00:47:45.697Z,8.52
2023-05-08T00:50:13.776Z,8.73
2023-05-08T00:52:41.297Z,8.95
2023-05-08T00:55:08.786Z,8.82
2023-05-08T00:57:36.404Z,8.73
2023-05-08T01:00:06.089Z,9.00
2023-05-08T01:02:34.079Z,9.00
2023-05-08T01:05:01.237Z,9.50
2023-05-08T01:07:28.646Z,10.20
2023-05-08T01:09:55.694Z,9.38
2023-05-08T01:12:39.457Z,10.50
2023-05-08T01:15:18.589Z,9.82
2023-05-08T01:18:11.559Z,10.90
2023-05-08T01:21:01.895Z,9.75
2023-05-08T01:23:47.743Z,10.50
2023-05-08T01:26:20.246Z,10.68
2023-05-08T01:29:19.856Z,10.13
2023-05-08T01:32:05.263Z,10.07
2023-05-08T01:34:35.069Z,10.88
2023-05-08T01:37:07.621Z,11.48
2023-05-08T01:40:03.408Z,11.02
2023-05-08T01:42:57.243Z,12.55
2023-05-08T01:45:30.447Z,11.00
2023-05-08T01:48:11.191Z,12.37
2023-05-08T01:50:45.737Z,11.57
2023-05-08T01:53:26.433Z,12.07
2023-05-08T01:55:58.159Z,11.32
2023-05-08T01:58:26.919Z,11.93
2023-05-08T02:00:55.043Z,12.35
2023-05-08T02:03:23.705Z,12.10
2023-05-08T02:05:54.017Z,11.93
2023-05-08T02:08:22.901Z,11.82
2023-05-08T02:10:52.069Z,11.27
2023-05-08T02:13:22.164Z,11.48
2023-05-08T02:15:51.481Z,11.88
2023-05-08T02:18:22.328Z,11.30
2023-05-08T02:20:51.873Z,12.27
2023-05-08T02:23:20.998Z,11.93
2023-05-08T02:25:49.471Z,11.88
2023-05-08T02:28:18.091Z,12.52
2023-05-08T02:30:46.491Z,13.25
2023-05-08T02:33:16.154Z,12.80
2023-05-08T02:35:45.442Z,14.23
2023-05-08T02:38:14.021Z,14.38
2023-05-08T02:40:46.663Z,13.00
2023-05-08T02:43:14.364Z,13.93
2023-05-08T02:45:49.821Z,14.93
2023-05-08T02:48:26.582Z,13.57
2023-05-08T02:51:21.712Z,14.52
2023-05-08T02:54:13.149Z,14.18
2023-05-08T02:56:48.661Z,14.27
2023-05-08T02:59:21.713Z,14.82
2023-05-08T03:02:04.573Z,15.45
2023-05-08T03:04:35.658Z,14.93
2023-05-08T03:07:04.738Z,14.70
2023-05-08T03:09:41.686Z,15.80
2023-05-08T03:12:16.003Z,15.20
2023-05-08T03:15:06.921Z,15.02
2023-05-08T03:17:35.726Z,15.23
2023-05-08T03:20:10.509Z,16.02
2023-05-08T03:22:40.271Z,14.98
2023-05-08T03:25:10.766Z,15.52
2023-05-08T03:27:38.319Z,14.98
2023-05-08T03:30:06.413Z,15.65
2023-05-08T03:32:35.172Z,15.52
2023-05-08T03:35:03.981Z,14.98
2023-05-08T03:37:31.128Z,16.10
2023-05-08T03:39:58.545Z,15.70
2023-05-08T03:42:26.662Z,17.77
2023-05-08T03:44:54.480Z,16.13
2023-05-08T03:47:22.477Z,16.08
2023-05-08T03:49:50.756Z,15.52
2023-05-08T03:52:17.936Z,15.60
2023-05-08T03:54:45.045Z,16.95
2023-05-08T03:57:12.379Z,16.27
2023-05-08T04:00:06.614Z,15.98
2023-05-08T04:03:05.561Z,16.20
2023-05-08T04:05:38.265Z,16.08
2023-05-08T04:08:15.919Z,15.82
2023-05-08T04:10:51.132Z,16.95
2023-05-08T04:13:27.422Z,16.95
2023-05-08T04:16:10.114Z,18.08
2023-05-08T04:18:40.008Z,18.23
2023-05-08T04:21:11.756Z,17.88
2023-05-08T04:23:42.171Z,17.15
2023-05-08T04:26:10.792Z,17.33
2023-05-08T04:28:38.139Z,17.77
2023-05-08T04:31:06.158Z,17.10
2023-05-08T04:33:35.566Z,17.20
2023-05-08T04:36:03.306Z,18.30
2023-05-08T04:38:30.614Z,17.58
2023-05-08T04:40:57.683Z,19.08
2023-05-08T04:43:24.787Z,18.08
2023-05-08T04:45:52.220Z,17.90
2023-05-08T04:48:19.464Z,18.17
2023-05-08T04:50:46.532Z,17.88
2023-05-08T04:53:13.682Z,18.40
2023-05-08T04:55:40.754Z,18.50
2023-05-08T04:58:07.817Z,18.02
2023-05-08T05:00:35.828Z,18.15
2023-05-08T05:03:02.901Z,18.83
2023-05-08T05:05:29.992Z,18.13
2023-05-08T05:07:57.138Z,18.27
2023-05-08T05:10:24.215Z,17.67
2023-05-08T05:12:51.255Z,16.48
2023-05-08T05:15:18.475Z,17.45
2023-05-08T05:17:45.689Z,17.67
2023-05-08T05:20:13.548Z,17.88
2023-05-08T05:22:40.796Z,17.13
2023-05-08T05:25:08.140Z,17.02
2023-05-08T05:27:37.028Z,17.42
2023-05-08T05:30:04.555Z,17.67
2023-05-08T05:32:33.531Z,16.98
2023-05-08T05:35:00.691Z,17.02
2023-05-08T05:37:28.306Z,16.73
2023-05-08T05:39:55.327Z,15.93
2023-05-08T05:42:23.247Z,16.38
2023-05-08T05:44:50.272Z,15.57
2023-05-08T05:47:17.401Z,15.18
2023-05-08T05:49:47.015Z,14.75
2023-05-08T05:52:14.679Z,13.73
2023-05-08T05:54:42.757Z,14.90
2023-05-08T05:57:09.933Z,14.27
2023-05-08T05:59:37.583Z,14.05
2023-05-08T06:02:04.664Z,15.15
2023-05-08T06:04:31.861Z,13.48
2023-05-08T06:06:59.060Z,14.25
2023-05-08T06:09:26.135Z,14.20
2023-05-08T06:11:53.199Z,13.60
2023-05-08T06:14:20.546Z,14.82
2023-05-08T06:16:47.690Z,14.45
2023-05-08T06:19:14.814Z,14.85
2023-05-08T06:21:41.854Z,14.68
2023-05-08T06:24:09.418Z,14.80
2023-05-08T06:26:36.419Z,16.20
2023-05-08T06:29:03.522Z,15.65
2023-05-08T06:31:30.745Z,16.00
2023-05-08T06:33:57.863Z,17.05
2023-05-08T06:36:24.965Z,16.98
2023-05-08T06:38:52.033Z,16.30
2023-05-08T06:41:19.059Z,16.58
2023-05-08T06:43:46.168Z,15.95
2023-05-08T06:46:13.283Z,16.05
2023-05-08T06:48:40.404Z,15.68
2023-05-08T06:51:07.548Z,16.38
2023-05-08T06:53:34.565Z,16.90
2023-05-08T06:56:01.622Z,16.58
2023-05-08T06:58:28.737Z,16.63
2023-05-08T07:00:55.825Z,17.48
2023-05-08T07:03:22.857Z,16.30
2023-05-08T07:05:49.995Z,17.35
2023-05-08T07:08:16.981Z,16.73
2023-05-08T07:10:44.057Z,16.60
2023-05-08T07:13:11.272Z,17.52
2023-05-08T07:15:39.305Z,18.02
2023-05-08T07:18:06.791Z,18.70
2023-05-08T07:20:33.911Z,18.08
2023-05-08T07:23:01.101Z,18.92
2023-05-08T07:25:28.175Z,19.30
2023-05-08T07:27:55.212Z,17.90
2023-05-08T07:30:22.417Z,17.40
2023-05-08T07:32:49.553Z,18.17
2023-05-08T07:35:16.963Z,19.73
2023-05-08T07:37:44.662Z,19.98
2023-05-08T07:40:12.025Z,19.35
2023-05-08T07:42:42.932Z,18.40
2023-05-08T07:45:12.312Z,17.92
2023-05-08T07:47:48.398Z,17.17
2023-05-08T07:50:15.526Z,16.95
2023-05-08T07:52:42.612Z,16.20
2023-05-08T07:55:09.968Z,16.08
2023-05-08T07:57:41.015Z,15.98
2023-05-08T08:00:10.072Z,15.80
2023-05-08T08:02:37.743Z,16.02
2023-05-08T08:05:08.588Z,15.68
2023-05-08T08:07:35.857Z,15.25
2023-05-08T08:10:04.709Z,15.95
2023-05-08T08:12:32.192Z,15.77
2023-05-08T08:14:59.299Z,14.18
2023-05-08T08:17:28.466Z,15.32
2023-05-08T08:19:56.011Z,13.93
2023-05-08T08:22:23.623Z,14.10
2023-05-08T08:24:51.896Z,13.98
2023-05-08T08:27:21.329Z,14.23
2023-05-08T08:29:48.404Z,13.98
2023-05-08T08:32:15.522Z,14.10
2023-05-08T08:34:42.762Z,14.35
2023-05-08T08:37:09.816Z,13.43
2023-05-08T08:39:37.024Z,14.35
2023-05-08T08:42:04.611Z,14.85
2023-05-08T08:44:31.718Z,13.98
2023-05-08T08:47:03.045Z,13.02
2023-05-08T08:49:35.271Z,13.18
2023-05-08T08:52:23.251Z,13.50
2023-05-08T08:54:51.793Z,13.23
2023-05-08T08:57:20.324Z,12.20
2023-05-08T08:59:47.731Z,12.65
2023-05-08T09:02:18.049Z,12.85
2023-05-08T09:04:45.537Z,13.75
2023-05-08T09:07:12.690Z,13.18
2023-05-08T09:09:44.661Z,13.35
2023-05-08T09:12:14.228Z,13.88
2023-05-08T09:14:41.319Z,13.38
2023-05-08T09:17:09.174Z,13.48
2023-05-08T09:19:36.606Z,12.73
2023-05-08T09:22:04.549Z,12.82
2023-05-08T09:24:57.105Z,13.75
2023-05-08T09:27:26.248Z,13.55
2023-05-08T09:30:08.047Z,12.15
2023-05-08T09:32:37.395Z,12.05
2023-05-08T09:35:05.566Z,12.95
2023-05-08T09:37:32.708Z,12.65
2023-05-08T09:40:20.323Z,12.32
2023-05-08T09:42:49.059Z,12.85
2023-05-08T09:45:32.651Z,12.82
2023-05-08T09:47:59.903Z,12.07
2023-05-08T09:50:28.019Z,12.57
2023-05-08T09:52:55.298Z,11.68
2023-05-08T09:55:22.467Z,12.73
2023-05-08T09:57:53.940Z,12.43
2023-05-08T10:00:21.458Z,12.50
2023-05-08T10:02:59.425Z,12.75
2023-05-08T10:05:27.249Z,12.52
2023-05-08T10:07:54.557Z,13.02
2023-05-08T10:10:28.188Z,13.02
2023-05-08T10:12:56.948Z,12.95
2023-05-08T10:15:28.427Z,14.13
2023-05-08T10:18:14.787Z,14.23
2023-05-08T10:20:46.620Z,13.93
2023-05-08T10:23:17.782Z,13.15
2023-05-08T10:25:54.665Z,13.60
2023-05-08T10:28:40.797Z,13.52
2023-05-08T10:31:08.452Z,12.98
2023-05-08T10:33:39.802Z,13.20
2023-05-08T10:36:07.728Z,12.88
2023-05-08T10:38:36.465Z,13.93
2023-05-08T10:41:04.034Z,12.98
2023-05-08T10:43:31.550Z,13.50
2023-05-08T10:46:03.385Z,13.38
2023-05-08T10:48:45.830Z,13.00
2023-05-08T10:51:39.168Z,13.00
2023-05-08T10:54:13.104Z,13.52
2023-05-08T10:56:40.360Z,14.10
2023-05-08T10:59:17.347Z,13.98
2023-05-08T11:01:48.271Z,14.25
2023-05-08T11:04:24.522Z,14.18
2023-05-08T11:06:54.473Z,14.48
2023-05-08T11:09:45.886Z,15.07
2023-05-08T11:12:27.861Z,14.88
2023-05-08T11:15:06.691Z,15.98
2023-05-08T11:17:34.648Z,16.25
2023-05-08T11:20:04.253Z,15.70
2023-05-08T11:22:33.286Z,15.50
2023-05-08T11:25:07.732Z,15.80
2023-05-08T11:27:47.081Z,16.58
2023-05-08T11:30:41.663Z,15.27
2023-05-08T11:33:08.713Z,14.55
2023-05-08T11:35:50.418Z,14.93
2023-05-08T11:38:36.153Z,15.82
2023-05-08T11:41:10.017Z,15.38
2023-05-08T11:44:00.262Z,15.85
2023-05-08T11:46:38.913Z,16.25
2023-05-08T11:49:06.235Z,15.90
2023-05-08T11:51:33.971Z,15.23
2023-05-08T11:54:01.339Z,15.90
2023-05-08T11:56:28.479Z,14.75
2023-05-08T11:59:11.622Z,16.17
2023-05-08T12:01:38.746Z,16.85
2023-05-08T12:04:11.517Z,15.88
2023-05-08T12:06:40.486Z,15.48
2023-05-08T12:09:18.548Z,16.67
2023-05-08T12:11:45.761Z,15.75
2023-05-08T12:14:17.235Z,15.68
2023-05-08T12:16:44.481Z,15.63
2023-05-08T12:19:13.961Z,16.08
2023-05-08T12:21:48.943Z,15.48
2023-05-08T12:24:23.220Z,16.23
2023-05-08T12:26:53.551Z,14.70
2023-05-08T12:29:20.767Z,14.48
2023-05-08T12:31:48.880Z,15.25
2023-05-08T12:34:16.748Z,14.32
2023-05-08T12:36:43.851Z,15.20
2023-05-08T12:39:15.624Z,16.02
2023-05-08T12:41:50.730Z,16.23
2023-05-08T12:44:24.873Z,14.35
2023-05-08T12:49:31.039Z,13.85
2023-05-08T12:52:07.063Z,13.18
2023-05-08T12:54:41.781Z,12.77
2023-05-08T12:57:18.609Z,12.50
2023-05-08T12:59:46.760Z,12.80
2023-05-08T13:02:22.689Z,12.77
2023-05-08T13:04:56.179Z,13.10
2023-05-08T13:07:23.507Z,12.55
2023-05-08T13:10:05.021Z,11.65
2023-05-08T13:12:32.709Z,11.88
2023-05-08T13:15:00.551Z,12.15
2023-05-08T13:17:27.719Z,10.90
2023-05-08T13:19:54.805Z,11.02
2023-05-08T13:22:23.302Z,11.63
2023-05-08T13:24:50.280Z,11.68
2023-05-08T13:27:17.346Z,11.48
2023-05-08T13:29:44.466Z,12.00
2023-05-08T13:32:11.576Z,11.63
2023-05-08T13:34:44.324Z,11.57
2023-05-08T13:37:16.674Z,10.82
2023-05-08T13:39:43.759Z,11.80
2023-05-08T13:42:10.883Z,12.15
2023-05-08T13:44:38.141Z,11.07
2023-05-08T13:47:05.207Z,11.65
2023-05-08T13:49:32.277Z,10.55
2023-05-08T13:52:01.279Z,11.00
2023-05-08T13:54:28.546Z,11.70
2023-05-08T13:56:55.717Z,10.13
2023-05-08T13:59:22.826Z,10.32
2023-05-08T14:01:49.920Z,9.02
2023-05-08T14:04:17.011Z,9.77
2023-05-08T14:06:44.181Z,10.65
2023-05-08T14:09:11.371Z,11.02
2023-05-08T14:11:38.449Z,11.23
2023-05-08T14:14:05.551Z,11.27
2023-05-08T14:16:33.218Z,9.82
2023-05-08T14:19:00.363Z,10.30
2023-05-08T14:21:27.775Z,10.02
2023-05-08T14:23:54.907Z,10.52
2023-05-08T14:26:21.942Z,10.07
2023-05-08T14:28:49.036Z,10.32
2023-05-08T14:31:16.132Z,9.77
2023-05-08T14:33:43.266Z,9.80
2023-05-08T14:36:10.455Z,10.15
2023-05-08T14:38:37.525Z,11.15
2023-05-08T14:41:05.049Z,9.93
2023-05-08T14:43:32.237Z,9.43
2023-05-08T14:45:59.442Z,11.73
2023-05-08T14:48:27.722Z,9.75
2023-05-08T14:50:54.726Z,9.20
2023-05-08T14:53:22.153Z,9.27
2023-05-08T14:55:49.469Z,8.50
2023-05-08T14:58:16.958Z,8.52
2023-05-08T15:00:44.048Z,8.40
2023-05-08T15:03:11.247Z,8.20
2023-05-08T15:05:38.462Z,8.48
2023-05-08T15:08:05.729Z,7.30
2023-05-08T15:10:32.849Z,7.40
2023-05-08T15:13:00.001Z,6.85
2023-05-08T15:15:27.113Z,7.03
2023-05-08T15:17:54.229Z,8.32
2023-05-08T15:20:21.646Z,8.20
2023-05-08T15:22:49.030Z,7.90
2023-05-08T15:25:16.437Z,8.38
2023-05-08T15:27:43.676Z,8.05
2023-05-08T15:30:11.156Z,8.30
2023-05-08T15:32:39.351Z,7.85
2023-05-08T15:35:09.116Z,7.78
2023-05-08T15:37:37.497Z,8.05
2023-05-08T15:40:04.864Z,7.70
2023-05-08T15:42:32.019Z,7.88
2023-05-08T15:44:59.147Z,9.18
2023-05-08T15:47:29.445Z,8.60
2023-05-08T15:49:56.526Z,8.60
2023-05-08T15:52:23.747Z,8.02
2023-05-08T15:54:51.273Z,7.40
2023-05-08T15:57:18.341Z,7.65
2023-05-08T15:59:45.385Z,7.25
2023-05-08T16:02:12.501Z,6.80
2023-05-08T16:04:39.983Z,7.13
2023-05-08T16:07:07.010Z,6.53
2023-05-08T16:09:34.073Z,6.85
2023-05-08T16:12:01.251Z,6.10
2023-05-08T16:14:28.533Z,6.20
2023-05-08T16:16:55.796Z,6.13
2023-05-08T16:19:23.124Z,6.57
2023-05-08T16:21:50.343Z,5.82
2023-05-08T16:24:17.528Z,6.25
2023-05-08T16:26:44.725Z,5.88
2023-05-08T16:29:11.968Z,6.88
2023-05-08T16:31:39.363Z,6.13
2023-05-08T16:34:06.734Z,6.50
2023-05-08T16:36:33.815Z,6.15
2023-05-08T16:39:01.044Z,6.28
2023-05-08T16:41:28.255Z,6.55
2023-05-08T16:43:55.568Z,6.50
2023-05-08T16:46:29.925Z,6.78
2023-05-08T16:48:58.022Z,6.30
2023-05-08T16:51:25.363Z,7.18
2023-05-08T16:53:52.593Z,6.30
2023-05-08T16:56:20.952Z,6.25
2023-05-08T16:58:48.221Z,6.72
2023-05-08T17:01:15.260Z,6.13
2023-05-08T17:03:44.015Z,6.28
2023-05-08T17:06:11.168Z,5.60
2023-05-08T17:08:38.219Z,5.47
2023-05-08T17:11:05.338Z,6.25
2023-05-08T17:13:32.482Z,5.68
2023-05-08T17:15:59.547Z,5.55
2023-05-08T17:18:26.612Z,5.47
2023-05-08T17:20:53.866Z,4.97
2023-05-08T17:23:20.968Z,6.07
2023-05-08T17:25:47.970Z,5.40
2023-05-08T17:28:15.254Z,5.63
2023-05-08T17:30:42.256Z,6.20
2023-05-08T17:33:09.448Z,5.80
2023-05-08T17:35:36.572Z,6.50
2023-05-08T17:38:03.692Z,6.15
2023-05-08T17:40:31.807Z,6.70
2023-05-08T17:43:01.661Z,7.03
2023-05-08T17:45:28.812Z,7.13
2023-05-08T17:47:55.989Z,6.95
2023-05-08T17:50:23.167Z,6.13
2023-05-08T17:52:50.215Z,5.78
2023-05-08T17:55:17.265Z,6.13
2023-05-08T17:57:44.438Z,6.18
2023-05-08T18:00:12.353Z,5.85
2023-05-08T18:02:39.838Z,6.15
2023-05-08T18:05:07.358Z,6.15
2023-05-08T18:07:34.910Z,6.25
2023-05-08T18:10:02.152Z,6.45
2023-05-08T18:12:29.190Z,6.35
2023-05-08T18:14:56.276Z,6.55
2023-05-08T18:17:23.426Z,6.15
2023-05-08T18:19:50.820Z,6.15
2023-05-08T18:22:18.012Z,6.68
2023-05-08T18:24:45.752Z,6.63
2023-05-08T18:27:12.760Z,6.65
2023-05-08T18:29:39.808Z,7.07
2023-05-08T18:32:06.866Z,6.82
2023-05-08T18:34:34.387Z,6.65
2023-05-08T18:37:01.713Z,6.63
2023-05-08T18:39:28.792Z,7.22
2023-05-08T18:41:55.885Z,8.07
2023-05-08T18:44:23.228Z,7.88
2023-05-08T18:46:50.365Z,8.05
2023-05-08T18:49:17.469Z,7.68
2023-05-08T18:51:44.555Z,8.52
2023-05-08T18:54:11.632Z,8.35
2023-05-08T18:56:38.740Z,8.50
2023-05-08T18:59:05.796Z,8.25
2023-05-08T19:01:32.852Z,8.68
2023-05-08T19:04:00.677Z,8.50
2023-05-08T19:06:27.835Z,8.10
2023-05-08T19:08:54.902Z,8.20
2023-05-08T19:11:22.080Z,8.15
2023-05-08T19:13:50.194Z,8.45
2023-05-08T19:16:17.362Z,8.68
2023-05-08T19:18:44.981Z,9.13
2023-05-08T19:21:12.037Z,9.25
2023-05-08T19:23:39.133Z,9.43
2023-05-08T19:26:06.313Z,9.27
2023-05-08T19:28:33.436Z,10.60
2023-05-08T19:31:03.522Z,10.50
2023-05-08T19:33:30.663Z,9.77
2023-05-08T19:35:57.683Z,9.98
2023-05-08T19:38:25.309Z,10.70
2023-05-08T19:40:56.994Z,10.90
2023-05-08T19:43:28.303Z,10.15
2023-05-08T19:45:58.953Z,10.27
2023-05-08T19:48:26.122Z,11.25
2023-05-08T19:50:55.243Z,10.40
2023-05-08T19:53:23.389Z,11.15
2023-05-08T19:55:50.580Z,11.07
2023-05-08T19:58:18.887Z,11.00
2023-05-08T20:00:50.955Z,11.73
2023-05-08T20:03:18.629Z,11.80
2023-05-08T20:05:45.866Z,11.38
2023-05-08T20:08:12.925Z,11.77
2023-05-08T20:10:40.309Z,11.52
2023-05-08T20:13:07.344Z,11.70
2023-05-08T20:15:35.072Z,12.07
2023-05-08T20:18:02.253Z,12.18
2023-05-08T20:20:29.932Z,11.73
2023-05-08T20:22:56.975Z,11.63
2023-05-08T20:25:25.026Z,11.65
2023-05-08T20:27:53.797Z,11.77
2023-05-08T20:30:23.387Z,12.32
2023-05-08T20:32:50.827Z,11.55
2023-05-08T20:35:17.877Z,11.85
2023-05-08T20:37:46.602Z,11.85
2023-05-08T20:40:14.711Z,11.93
2023-05-08T20:42:42.309Z,12.85
2023-05-08T20:45:10.000Z,12.75
2023-05-08T20:47:37.133Z,12.68
2023-05-08T20:50:05.180Z,13.52
2023-05-08T20:52:38.479Z,12.48
2023-05-08T20:55:07.074Z,12.93
2023-05-08T20:57:34.123Z,12.65
2023-05-08T21:00:01.262Z,13.23
2023-05-08T21:02:28.599Z,13.15
2023-05-08T21:04:55.696Z,13.23
2023-05-08T21:07:22.874Z,13.38
2023-05-08T21:09:49.869Z,13.15
2023-05-08T21:12:17.094Z,13.13
2023-05-08T21:14:44.172Z,12.82
2023-05-08T21:17:11.171Z,13.75
2023-05-08T21:19:38.437Z,14.07
2023-05-08T21:22:05.542Z,14.52
2023-05-08T21:24:32.618Z,14.15
2023-05-08T21:27:03.027Z,13.13
2023-05-08T21:29:30.314Z,14.50
2023-05-08T21:31:57.471Z,13.65
2023-05-08T21:34:24.715Z,14.68
2023-05-08T21:36:51.778Z,14.55
2023-05-08T21:39:19.114Z,15.13
2023-05-08T21:41:46.791Z,14.90
2023-05-08T21:44:15.509Z,15.40
2023-05-08T21:46:42.965Z,15.65
2023-05-08T21:49:11.044Z,14.50
2023-05-08T21:51:38.153Z,14.77
2023-05-08T21:54:05.205Z,16.08
2023-05-08T21:56:32.268Z,15.15
2023-05-08T21:58:59.256Z,15.27
2023-05-08T22:01:26.460Z,15.25
2023-05-08T22:03:53.640Z,14.93
2023-05-08T22:06:20.847Z,15.32
2023-05-08T22:08:48.018Z,15.93
2023-05-08T22:11:15.490Z,16.50
2023-05-08T22:13:42.526Z,16.95
2023-05-08T22:16:09.620Z,16.60
2023-05-08T22:18:36.735Z,16.35
2023-05-08T22:21:03.873Z,16.23
2023-05-08T22:23:30.891Z,15.82
2023-05-08T22:25:57.918Z,17.23
2023-05-08T22:28:25.003Z,17.35
2023-05-08T22:30:52.138Z,16.27
2023-05-08T22:33:19.213Z,17.75
2023-05-08T22:35:46.245Z,17.10
2023-05-08T22:38:13.300Z,17.30
2023-05-08T22:40:42.556Z,18.58
2023-05-08T22:43:10.002Z,17.27
2023-05-08T22:45:37.267Z,17.38
2023-05-08T22:48:04.703Z,16.95
2023-05-08T22:50:31.747Z,18.20
2023-05-08T22:52:58.872Z,19.20
2023-05-08T22:55:25.960Z,18.27
2023-05-08T22:57:52.962Z,19.20
2023-05-08T23:00:20.581Z,19.10
2023-05-08T23:02:47.635Z,19.15
2023-05-08T23:05:15.124Z,19.42
2023-05-08T23:07:42.396Z,19.42
2023-05-08T23:10:09.910Z,18.42
2023-05-08T23:12:37.258Z,17.75
2023-05-08T23:15:04.860Z,18.02
2023-05-08T23:17:32.208Z,18.80
2023-05-08T23:19:59.313Z,18.38
2023-05-08T23:22:26.369Z,18.80
2023-05-08T23:24:53.441Z,20.00
2023-05-08T23:27:20.836Z,20.23
2023-05-08T23:29:47.864Z,19.15
2023-05-08T23:32:15.490Z,19.33
2023-05-08T23:34:43.263Z,19.02
2023-05-08T23:37:10.412Z,19.95
2023-05-08T23:39:41.386Z,19.13
2023-05-08T23:42:08.923Z,19.60
2023-05-08T23:44:36.080Z,19.88
2023-05-08T23:47:03.171Z,19.85
2023-05-08T23:49:30.260Z,19.42
2023-05-08T23:51:57.434Z,19.98
2023-05-08T23:54:24.545Z,20.45
2023-05-08T23:56:51.610Z,21.38
2023-05-08T23:59:18.587Z,21.17
